Time;durP1;ratioP1;P1;durP2;ratioP2;P2;SDS_P1;SDS_P2;PMS_P1;PMS_P2;Temp;Humidity;BMP_temperature;BMP_pressure;BME280_temperature;BME280_humidity;BME280_pressure;Samples;Min_cycle;Max_cycle;Signal;HPM_P1;HPM_P2
2022/05/29 00:01:58;;;;;;;10.27;2.67;;;;;;;;;;4346384;33;20028;-78
2022/05/29 00:04:24;;;;;;;17.52;3.03;;;;;;;;;;4346786;33;20032;-77
2022/05/29 00:06:49;;;;;;;;;;;;;;;;;;4347723;33;20024;-78
2022/05/29 00:09:17;;;;;;;13.32;2.85;;;;;;;;;;4346798;33;19939;-78
2022/05/29 00:11:42;;;;;;;16.25;3.28;;;;;;;;;;4346248;33;20121;-77
2022/05/29 00:14:10;;;;;;;;;;;;;;;;;;4347284;33;20042;-78
2022/05/29 00:16:35;;;;;;;;;;;;;;;;;;4346937;33;19945;-77
2022/05/29 00:19:00;;;;;;;10.88;2.42;;;;;;;;;;4346604;33;19938;-77
2022/05/29 00:21:33;;;;;;;;;;;;;;;;;;4346647;33;20082;-77
2022/05/29 00:24:04;;;;;;;10.95;2.65;;;;;;;;;;4347182;33;19946;-77
2022/05/29 00:26:29;;;;;;;5.85;2.35;;;;;;;;;;4333736;33;20019;-78
2022/05/29 00:28:54;;;;;;;;;;;;;;;;;;4346703;33;20369;-77
2022/05/29 00:31:23;;;;;;;9.82;2.87;;;;;;;;;;4347023;33;19939;-77
2022/05/29 00:33:48;;;;;;;10.20;2.65;;;;;;;;;;4346367;33;20050;-78
2022/05/29 00:36:13;;;;;;;;;;;;;;;;;;4346625;33;20029;-78
2022/05/29 00:38:40;;;;;;;14.77;2.70;;;;;;;;;;4347240;33;19953;-77
2022/05/29 00:41:17;;;;;;;16.77;3.25;;;;;;;;;;4332395;33;20019;-76
2022/05/29 00:43:43;;;;;;;13.23;2.80;;;;;;;;;;4346678;33;20029;-76
2022/05/29 00:46:12;;;;;;;9.57;2.78;;;;;;;;;;4346458;33;20016;-76
2022/05/29 00:48:38;;;;;;;9.43;2.60;;;;;;;;;;4346216;33;20028;-76
2022/05/29 00:51:03;;;;;;;;;;;;;;;;;;4347006;33;20105;-77
2022/05/29 00:53:29;;;;;;;13.45;3.87;;;;;;;;;;4346548;33;19994;-77
2022/05/29 00:56:00;;;;;;;9.70;2.60;;;;;;;;;;4346074;33;20452;-77
2022/05/29 00:58:26;;;;;;;11.20;4.32;;;;;;;;;;4345457;33;20023;-77
2022/05/29 01:00:51;;;;;;;;;;;;;;;;;;4346737;33;20296;-77
2022/05/29 01:03:16;;;;;;;11.18;4.03;;;;;;;;;;4345938;33;19943;-77
2022/05/29 01:05:42;;;;;;;;;;;;;;;;;;4347191;33;20032;-77
2022/05/29 01:08:13;;;;;;;17.60;3.15;;;;;;;;;;4346806;33;19981;-77
2022/05/29 01:10:52;;;;;;;11.25;2.85;;;;;;;;;;4345429;32;20124;-77
2022/05/29 01:13:42;;;;;;;12.20;3.37;;;;;;;;;;4346210;33;20414;-77
2022/05/29 01:16:19;;;;;;;8.23;2.92;;;;;;;;;;4345555;33;20036;-76
2022/05/29 01:19:11;;;;;;;13.57;3.55;;;;;;;;;;4346042;33;20019;-77
2022/05/29 01:21:42;;;;;;;10.63;3.00;;;;;;;;;;4331555;33;20074;-76
2022/05/29 01:24:37;;;;;;;11.82;2.83;;;;;;;;;;4345674;33;20027;-76
2022/05/29 01:27:12;;;;;;;11.27;2.95;;;;;;;;;;4325739;33;20110;-76
2022/05/29 01:29:43;;;;;;;10.65;2.50;;;;;;;;;;4345351;33;20067;-77
2022/05/29 01:32:12;;;;;;;8.57;3.08;;;;;;;;;;4345862;33;20036;-77
2022/05/29 01:34:42;;;;;;;13.90;3.28;;;;;;;;;;4345325;33;20023;-77
2022/05/29 01:37:12;;;;;;;7.12;2.75;;;;;;;;;;4345508;33;20050;-77
2022/05/29 01:39:55;;;;;;;;;;;;;;;;;;;;;
2022/05/29 01:42:36;;;;;;;8.95;2.90;;;;;;;;;;4346196;33;20024;-77
2022/05/29 01:45:17;;;;;;;11.38;3.42;;;;;;;;;;4331750;33;20327;-77
2022/05/29 01:47:49;;;;;;;14.38;2.85;;;;;;;;;;4345772;33;20090;-77
2022/05/29 01:50:26;;;;;;;7.35;2.90;;;;;;;;;;4347594;33;20406;-77
2022/05/29 01:53:04;;;;;;;9.80;2.80;;;;;;;;;;4348779;33;20370;-77
2022/05/29 01:55:38;;;;;;;8.65;3.03;;;;;;;;;;4348474;33;20482;-77
2022/05/29 01:58:14;;;;;;;12.23;2.72;;;;;;;;;;4348919;33;20066;-77
2022/05/29 02:00:40;;;;;;;8.98;2.65;;;;;;;;;;4348476;33;20032;-77
2022/05/29 02:05:54;;;;;;;11.95;2.58;;;;;;;;;;4338156;33;19935;-77
2022/05/29 02:08:39;;;;;;;12.10;2.50;;;;;;;;;;4348161;33;20058;-77
2022/05/29 02:11:07;;;;;;;12.37;3.37;;;;;;;;;;4348692;33;20413;-77
2022/05/29 02:13:55;;;;;;;10.85;2.47;;;;;;;;;;4348717;33;20082;-77
2022/05/29 02:16:34;;;;;;;8.85;2.45;;;;;;;;;;4342507;33;20044;-76
2022/05/29 02:19:08;;;;;;;9.63;3.05;;;;;;;;;;4348224;33;20024;-76
2022/05/29 02:21:36;;;;;;;8.63;2.22;;;;;;;;;;4348190;33;20024;-76
2022/05/29 02:24:04;;;;;;;8.35;2.28;;;;;;;;;;4349302;33;20054;-76
2022/05/29 02:26:32;;;;;;;9.75;2.58;;;;;;;;;;4348888;33;20090;-77
2022/05/29 02:29:00;;;;;;;12.27;3.75;;;;;;;;;;4334353;33;20409;-76
2022/05/29 02:31:28;;;;;;;10.38;3.42;;;;;;;;;;4348443;33;20027;-77
2022/05/29 02:34:03;;;;;;;11.85;2.65;;;;;;;;;;4348397;33;20032;-77
2022/05/29 02:43:20;;;;;;;10.82;3.03;;;;;;;;;;4330844;33;20094;-77
2022/05/29 02:45:57;;;;;;;10.57;3.08;;;;;;;;;;4331576;33;20058;-77
2022/05/29 02:48:26;;;;;;;9.27;2.53;;;;;;;;;;4333343;33;20028;-77
2022/05/29 02:50:59;;;;;;;12.20;3.00;;;;;;;;;;4334069;33;20058;-76
2022/05/29 02:53:25;;;;;;;10.70;2.72;;;;;;;;;;4334003;33;20098;-77
2022/05/29 02:55:53;;;;;;;5.85;2.10;;;;;;;;;;4333165;33;20423;-76
2022/05/29 02:58:21;;;;;;;10.05;2.75;;;;;;;;;;4332780;33;20163;-77
2022/05/29 03:01:02;;;;;;;13.43;2.80;;;;;;;;;;4332754;33;20044;-76
2022/05/29 03:03:50;;;;;;;11.48;2.47;;;;;;;;;;4332833;33;20059;-76
2022/05/29 03:06:16;;;;;;;10.85;3.17;;;;;;;;;;4333069;33;20111;-76
2022/05/29 03:08:52;;;;;;;9.18;2.97;;;;;;;;;;4333245;33;20082;-76
2022/05/29 03:11:24;;;;;;;5.53;2.15;;;;;;;;;;4343454;33;20059;-76
2022/05/29 03:13:58;;;;;;;7.78;2.22;;;;;;;;;;4348563;33;20016;-77
2022/05/29 03:16:53;;;;;;;9.50;2.60;;;;;;;;;;4347925;33;20042;-76
2022/05/29 03:19:30;;;;;;;7.22;1.80;;;;;;;;;;4343295;33;20058;-76
2022/05/29 03:22:31;;;;;;;7.97;2.20;;;;;;;;;;4334919;33;20032;-76
2022/05/29 03:25:15;;;;;;;7.00;1.80;;;;;;;;;;4316200;33;20419;-76
2022/05/29 03:27:44;;;;;;;6.82;1.95;;;;;;;;;;4344280;33;20024;-76
2022/05/29 03:30:14;;;;;;;5.32;1.92;;;;;;;;;;4333964;33;20047;-76
2022/05/29 03:32:41;;;;;;;5.82;1.85;;;;;;;;;;4347547;33;20050;-76
2022/05/29 03:35:20;;;;;;;9.30;3.67;;;;;;;;;;4347035;33;20032;-76
2022/05/29 03:38:17;;;;;;;6.70;2.40;;;;;;;;;;4347809;33;20126;-76
2022/05/29 03:57:01;;;;;;;9.98;2.37;;;;;;;;;;4286073;33;20140;-76
2022/05/29 04:01:55;;;;;;;11.68;2.30;;;;;;;;;;4301260;33;20467;-76
2022/05/29 04:04:21;;;;;;;9.73;3.12;;;;;;;;;;4300490;33;20024;-75
2022/05/29 04:06:46;;;;;;;;;;;;;;;;;;4301374;33;20053;-76
2022/05/29 04:12:04;;;;;;;6.20;2.20;;;;;;;;;;4336558;33;20046;-75
2022/05/29 04:14:46;;;;;;;9.75;2.55;;;;;;;;;;4347456;33;20019;-76
2022/05/29 04:17:13;;;;;;;7.55;2.12;;;;;;;;;;4346585;33;20393;-76
2022/05/29 04:19:44;;;;;;;9.25;2.60;;;;;;;;;;4346472;33;20024;-78
2022/05/29 04:22:29;;;;;;;11.05;2.60;;;;;;;;;;4347904;32;20075;-77
2022/05/29 04:24:56;;;;;;;11.85;2.87;;;;;;;;;;4345794;33;20092;-77
2022/05/29 04:27:22;;;;;;;13.10;2.65;;;;;;;;;;4332840;33;20049;-78
2022/05/29 04:29:47;;;;;;;9.68;2.30;;;;;;;;;;4346571;33;20028;-78
2022/05/29 04:34:57;;;;;;;6.15;2.60;;;;;;;;;;4347121;33;19990;-77
2022/05/29 04:37:23;;;;;;;9.25;2.90;;;;;;;;;;4346643;33;20098;-77
2022/05/29 04:39:48;;;;;;;7.18;2.35;;;;;;;;;;4346845;33;20023;-78
2022/05/29 04:42:13;;;;;;;8.88;2.28;;;;;;;;;;4346316;33;20324;-77
2022/05/29 04:44:39;;;;;;;;;;;;;;;;;;4347232;33;20058;-77
2022/05/29 04:47:09;;;;;;;20.08;3.25;;;;;;;;;;4345942;33;19942;-77
2022/05/29 04:50:11;;;;;;;;;;;;;;;;;;;;;
2022/05/29 04:53:01;;;;;;;7.15;2.20;;;;;;;;;;4313399;33;20441;-78
2022/05/29 04:55:40;;;;;;;8.35;2.50;;;;;;;;;;4314576;33;20032;-78
2022/05/29 04:58:06;;;;;;;8.82;2.12;;;;;;;;;;4314608;33;20028;-78
2022/05/29 05:00:40;;;;;;;10.57;2.20;;;;;;;;;;4314773;33;20072;-77
2022/05/29 05:03:18;;;;;;;9.00;1.90;;;;;;;;;;4331715;33;20054;-78
2022/05/29 05:05:44;;;;;;;10.13;2.90;;;;;;;;;;4331068;33;20024;-77
2022/05/29 05:08:10;;;;;;;7.20;2.03;;;;;;;;;;4331074;33;20032;-77
2022/05/29 05:10:35;;;;;;;4.72;1.80;;;;;;;;;;4330933;33;20054;-77
2022/05/29 05:13:00;;;;;;;;;;;;;;;;;;4331252;33;20418;-78
2022/05/29 05:15:26;;;;;;;10.68;2.75;;;;;;;;;;4330755;33;19943;-78
2022/05/29 05:17:51;;;;;;;;;;;;;;;;;;4331198;33;20117;-78
2022/05/29 05:20:16;;;;;;;7.70;2.33;;;;;;;;;;4330892;33;20017;-77
2022/05/29 05:22:41;;;;;;;;;;;;;;;;;;4330236;33;20036;-78
2022/05/29 05:25:07;;;;;;;7.28;2.53;;;;;;;;;;4332990;33;19939;-77
2022/05/29 05:27:33;;;;;;;5.43;1.75;;;;;;;;;;4346287;33;20024;-78
2022/05/29 05:29:58;;;;;;;5.78;2.08;;;;;;;;;;4332670;33;20027;-78
2022/05/29 05:32:27;;;;;;;8.95;2.15;;;;;;;;;;4346119;33;20362;-77
2022/05/29 05:53:38;;;;;;;7.70;2.42;;;;;;;;;;4258231;33;20462;-77
2022/05/29 05:56:05;;;;;;;6.75;2.12;;;;;;;;;;4259761;33;20060;-77
2022/05/29 05:58:42;;;;;;;7.55;2.22;;;;;;;;;;4319487;33;20324;-77
2022/05/29 06:01:12;;;;;;;5.12;1.83;;;;;;;;;;4343111;33;20039;-77
2022/05/29 06:03:38;;;;;;;8.52;2.12;;;;;;;;;;4345440;33;20031;-76
2022/05/29 06:06:03;;;;;;;;;;;;;;;;;;4345765;33;20058;-76
2022/05/29 06:08:29;;;;;;;8.27;1.95;;;;;;;;;;4345558;33;19973;-77
2022/05/29 06:14:08;;;;;;;6.85;3.10;;;;;;;;;;4328537;33;19931;-77
2022/05/29 06:16:36;;;;;;;9.50;2.03;;;;;;;;;;4344527;33;20089;-76
2022/05/29 06:19:16;;;;;;;6.22;2.22;;;;;;;;;;4346726;33;20394;-77
2022/05/29 06:21:47;;;;;;;5.57;1.95;;;;;;;;;;4359853;33;20028;-77
2022/05/29 06:24:15;;;;;;;6.18;2.00;;;;;;;;;;4360763;33;20077;-77
2022/05/29 06:26:48;;;;;;;7.68;2.12;;;;;;;;;;4359917;33;20023;-77
2022/05/29 06:29:34;;;;;;;6.60;2.35;;;;;;;;;;4360464;33;20349;-77
2022/05/29 06:32:19;;;;;;;3.70;1.60;;;;;;;;;;4358880;33;20023;-77
2022/05/29 06:34:47;;;;;;;4.35;1.60;;;;;;;;;;4359753;32;20089;-77
2022/05/29 06:41:01;;;;;;;6.37;2.05;;;;;;;;;;4354975;32;20042;-77
2022/05/29 06:43:45;;;;;;;5.82;2.30;;;;;;;;;;4348778;33;20054;-77
2022/05/29 06:46:12;;;;;;;9.48;3.03;;;;;;;;;;4348528;33;20035;-76
2022/05/29 06:49:04;;;;;;;6.95;2.58;;;;;;;;;;4348391;33;20051;-77
2022/05/29 06:51:29;;;;;;;10.30;2.20;;;;;;;;;;4347436;33;20094;-77
2022/05/29 06:54:04;;;;;;;7.30;2.33;;;;;;;;;;4347597;33;20051;-77
2022/05/29 06:56:29;;;;;;;10.35;2.90;;;;;;;;;;4347906;33;20386;-76
2022/05/29 06:59:05;;;;;;;10.60;2.75;;;;;;;;;;4347659;33;20027;-76
2022/05/29 07:14:38;;;;;;;;;;;;;;;;;;;;;
2022/05/29 07:20:08;;;;;;;9.73;2.60;;;;;;;;;;4230388;33;20503;-77
2022/05/29 07:22:35;;;;;;;11.75;3.08;;;;;;;;;;4230121;33;20106;-77
2022/05/29 07:25:00;;;;;;;8.60;2.78;;;;;;;;;;4260440;33;20064;-76
2022/05/29 07:27:26;;;;;;;11.18;2.53;;;;;;;;;;4343247;33;20035;-77
2022/05/29 07:29:51;;;;;;;;;;;;;;;;;;4347344;33;20023;-78
2022/05/29 07:32:16;;;;;;;8.57;2.50;;;;;;;;;;4347085;33;19970;-76
2022/05/29 07:34:44;;;;;;;5.50;2.47;;;;;;;;;;4347169;33;20090;-76
2022/05/29 07:43:55;;;;;;;;;;;;;;;;;;;;;
2022/05/29 07:55:57;;;;;;;;;;;;;;;;;;;;;
2022/05/29 08:04:01;;;;;;;6.97;1.83;;;;;;;;;;4347069;33;20140;-76
2022/05/29 08:09:40;;;;;;;6.97;2.35;;;;;;;;;;4283114;33;20093;-76
2022/05/29 08:12:05;;;;;;;7.82;1.92;;;;;;;;;;4332328;33;20038;-77
2022/05/29 08:32:15;;;;;;;10.10;2.60;;;;;;;;;;4333330;33;20027;-77
2022/05/29 08:34:42;;;;;;;12.65;2.58;;;;;;;;;;4332268;33;20024;-77
2022/05/29 08:37:45;;;;;;;12.37;2.80;;;;;;;;;;4331585;33;20457;-77
2022/05/29 08:40:11;;;;;;;5.93;2.10;;;;;;;;;;4329851;33;20052;-77
2022/05/29 08:42:37;;;;;;;6.30;1.85;;;;;;;;;;4331622;33;20050;-77
2022/05/29 08:45:03;;;;;;;6.55;1.90;;;;;;;;;;4331580;33;20057;-77
2022/05/29 08:47:31;;;;;;;5.53;1.65;;;;;;;;;;4331420;33;20046;-76
2022/05/29 08:49:59;;;;;;;4.55;1.67;;;;;;;;;;4331708;33;20040;-76
2022/05/29 08:52:27;;;;;;;4.00;1.40;;;;;;;;;;4331315;33;20031;-76
2022/05/29 08:55:11;;;;;;;7.55;1.85;;;;;;;;;;4330787;33;20047;-77
2022/05/29 08:58:04;;;;;;;2.72;1.20;;;;;;;;;;4330957;33;20024;-77
2022/05/29 09:14:51;;;;;;;3.90;1.25;;;;;;;;;;4299905;33;20104;-77
2022/05/29 09:17:23;;;;;;;8.93;1.58;;;;;;;;;;4301164;33;20096;-77
2022/05/29 09:19:51;;;;;;;4.80;1.00;;;;;;;;;;4330955;33;20047;-77
2022/05/29 09:22:34;;;;;;;1.80;0.88;;;;;;;;;;4331304;33;20097;-76
2022/05/29 09:25:18;;;;;;;4.37;1.10;;;;;;;;;;4330873;33;20025;-77
2022/05/29 09:27:55;;;;;;;;;;;;;;;;;;;;;
2022/05/29 09:30:39;;;;;;;;;;;;;;;;;;;;;
2022/05/29 09:33:20;;;;;;;1.50;0.82;;;;;;;;;;4330967;33;20035;-73
2022/05/29 09:36:04;;;;;;;4.30;0.80;;;;;;;;;;4330890;33;20051;-76
2022/05/29 09:38:34;;;;;;;3.17;1.00;;;;;;;;;;4330885;33;20049;-76
2022/05/29 09:41:25;;;;;;;1.75;0.73;;;;;;;;;;4343989;33;20066;-76
2022/05/29 09:51:00;;;;;;;;;;;;;;;;;;;;;
2022/05/29 09:53:42;;;;;;;2.47;0.95;;;;;;;;;;4345352;33;20043;-77
2022/05/29 09:56:22;;;;;;;2.95;1.40;;;;;;;;;;4345614;33;20461;-76
2022/05/29 09:58:49;;;;;;;5.97;1.60;;;;;;;;;;4344505;33;20449;-76
2022/05/29 10:01:34;;;;;;;4.65;1.37;;;;;;;;;;4345023;33;20039;-77
2022/05/29 10:10:41;;;;;;;4.45;1.20;;;;;;;;;;4325972;33;20020;-76
2022/05/29 10:13:09;;;;;;;4.75;1.25;;;;;;;;;;4335168;33;20361;-76
2022/05/29 10:15:38;;;;;;;6.12;2.15;;;;;;;;;;4347797;33;20019;-76
2022/05/29 10:18:34;;;;;;;6.00;1.60;;;;;;;;;;4348068;33;20377;-77
2022/05/29 10:21:35;;;;;;;4.72;1.15;;;;;;;;;;4316916;33;20024;-76
2022/05/29 10:24:28;;;;;;;6.00;1.40;;;;;;;;;;4318395;33;20032;-76
2022/05/29 10:27:00;;;;;;;7.43;1.62;;;;;;;;;;4348312;33;20038;-77
2022/05/29 10:29:30;;;;;;;8.45;1.90;;;;;;;;;;4348528;33;20020;-77
2022/05/29 10:31:56;;;;;;;8.80;2.35;;;;;;;;;;4347830;33;20058;-78
2022/05/29 10:34:23;;;;;;;9.00;2.25;;;;;;;;;;4348359;33;20020;-78
2022/05/29 10:36:49;;;;;;;7.45;1.83;;;;;;;;;;4334307;33;20452;-77
2022/05/29 10:39:14;;;;;;;;;;;;;;;;;;4348926;33;20020;-77
2022/05/29 10:41:41;;;;;;;12.77;2.37;;;;;;;;;;4334362;33;20273;-77
2022/05/29 10:44:10;;;;;;;6.87;2.35;;;;;;;;;;4347784;33;20326;-76
2022/05/29 10:46:40;;;;;;;7.12;2.15;;;;;;;;;;4348567;33;20027;-76
2022/05/29 10:49:18;;;;;;;11.23;2.33;;;;;;;;;;4346781;33;20046;-76
2022/05/29 10:52:05;;;;;;;10.65;2.85;;;;;;;;;;4334384;33;20020;-76
2022/05/29 10:54:42;;;;;;;11.70;3.47;;;;;;;;;;4334007;33;20028;-76
2022/05/29 10:57:26;;;;;;;9.68;2.55;;;;;;;;;;4347835;33;20137;-77
2022/05/29 11:00:03;;;;;;;15.85;3.50;;;;;;;;;;4347674;33;20062;-77
2022/05/29 11:05:51;;;;;;;14.55;3.00;;;;;;;;;;4347754;33;20362;-77
2022/05/29 11:08:41;;;;;;;15.25;3.00;;;;;;;;;;4347518;33;20073;-77
2022/05/29 11:11:09;;;;;;;12.63;3.10;;;;;;;;;;4333856;33;20476;-77
2022/05/29 11:13:48;;;;;;;11.63;2.70;;;;;;;;;;4347407;33;20103;-77
2022/05/29 11:16:19;;;;;;;15.75;2.90;;;;;;;;;;4347913;33;20436;-77
2022/05/29 11:18:58;;;;;;;12.20;2.58;;;;;;;;;;4347162;33;20407;-76
2022/05/29 11:21:36;;;;;;;11.02;2.75;;;;;;;;;;4345936;33;20062;-78
2022/05/29 11:24:22;;;;;;;14.87;2.90;;;;;;;;;;4347342;33;20020;-77
2022/05/29 11:26:56;;;;;;;8.20;2.20;;;;;;;;;;4347454;33;20077;-78
2022/05/29 11:29:35;;;;;;;10.25;2.33;;;;;;;;;;4347157;33;20016;-77
2022/05/29 11:32:00;;;;;;;6.82;2.17;;;;;;;;;;4347625;33;20380;-77
2022/05/29 11:34:35;;;;;;;11.55;2.72;;;;;;;;;;4333881;33;20036;-76
2022/05/29 11:37:19;;;;;;;6.30;2.40;;;;;;;;;;4347735;33;20028;-77
2022/05/29 11:39:50;;;;;;;9.00;2.05;;;;;;;;;;4334446;33;20020;-76
2022/05/29 11:42:25;;;;;;;8.38;1.80;;;;;;;;;;4346857;33;20077;-76
2022/05/29 11:44:54;;;;;;;10.73;1.90;;;;;;;;;;4347089;33;20019;-76
2022/05/29 11:53:20;;;;;;;9.05;1.87;;;;;;;;;;4335904;33;20042;-75
2022/05/29 11:55:46;;;;;;;6.95;2.47;;;;;;;;;;4347852;33;20073;-76
2022/05/29 11:58:16;;;;;;;7.05;1.98;;;;;;;;;;4348141;33;20115;-77
2022/05/29 12:00:51;;;;;;;6.03;1.73;;;;;;;;;;4348284;33;20040;-76
2022/05/29 12:03:19;;;;;;;8.52;2.30;;;;;;;;;;4348408;33;20028;-77
2022/05/29 12:05:54;;;;;;;10.98;2.87;;;;;;;;;;4348286;33;20094;-76
2022/05/29 12:08:27;;;;;;;7.37;2.00;;;;;;;;;;4334110;33;20427;-76
2022/05/29 12:11:10;;;;;;;4.47;1.75;;;;;;;;;;4349005;33;20078;-76
2022/05/29 12:13:58;;;;;;;8.07;2.00;;;;;;;;;;4347610;33;20042;-76
2022/05/29 12:16:28;;;;;;;5.62;1.62;;;;;;;;;;4347201;33;20019;-76
2022/05/29 12:18:59;;;;;;;5.62;1.75;;;;;;;;;;4346571;33;20032;-77
2022/05/29 12:21:51;;;;;;;6.47;1.37;;;;;;;;;;4347144;33;20016;-77
2022/05/29 12:24:19;;;;;;;5.40;2.65;;;;;;;;;;4345473;33;20024;-76
2022/05/29 12:27:00;;;;;;;4.55;1.40;;;;;;;;;;4346587;33;20062;-75
2022/05/29 12:29:34;;;;;;;7.70;1.77;;;;;;;;;;4333328;33;20039;-75
2022/05/29 12:32:09;;;;;;;1.45;1.08;;;;;;;;;;4346901;33;20020;-76
2022/05/29 12:34:52;;;;;;;5.20;1.60;;;;;;;;;;4344211;33;20011;-76
2022/05/29 12:37:35;;;;;;;3.85;0.93;;;;;;;;;;4346256;33;20028;-76
2022/05/29 12:40:42;;;;;;;5.70;2.22;;;;;;;;;;4345857;33;20050;-76
2022/05/29 12:43:24;;;;;;;3.90;1.30;;;;;;;;;;4300244;33;20541;-76
2022/05/29 12:46:08;;;;;;;5.65;1.10;;;;;;;;;;4343450;33;20069;-77
2022/05/29 12:49:00;;;;;;;6.20;1.70;;;;;;;;;;4333238;33;20020;-77
2022/05/29 12:51:34;;;;;;;6.72;1.33;;;;;;;;;;4346350;33;20036;-78
2022/05/29 12:54:40;;;;;;;6.03;1.48;;;;;;;;;;4346360;33;20020;-77
2022/05/29 13:00:44;;;;;;;2.25;1.12;;;;;;;;;;4305792;32;20098;-77
2022/05/29 13:03:48;;;;;;;3.42;1.25;;;;;;;;;;4345868;33;20042;-76
2022/05/29 13:06:16;;;;;;;4.50;1.12;;;;;;;;;;4346344;33;20024;-77
2022/05/29 13:08:58;;;;;;;6.18;1.55;;;;;;;;;;4345517;33;20031;-76
2022/05/29 13:11:26;;;;;;;3.00;1.27;;;;;;;;;;4346161;33;20015;-76
2022/05/29 13:13:56;;;;;;;4.53;1.20;;;;;;;;;;4345600;33;20082;-77
2022/05/29 13:16:25;;;;;;;5.50;1.30;;;;;;;;;;4345701;33;20373;-76
2022/05/29 13:21:26;;;;;;;4.37;1.50;;;;;;;;;;4346182;33;20050;-76
2022/05/29 13:23:53;;;;;;;2.92;1.10;;;;;;;;;;4345662;33;20093;-77
2022/05/29 13:26:32;;;;;;;5.97;1.55;;;;;;;;;;4345406;33;20032;-77
2022/05/29 13:29:13;;;;;;;;;;;;;;;;;;;;;
2022/05/29 13:31:58;;;;;;;5.68;1.42;;;;;;;;;;4344789;33;20066;-78
2022/05/29 13:34:25;;;;;;;5.40;2.10;;;;;;;;;;4345501;33;20468;-78
2022/05/29 13:37:46;;;;;;;5.87;1.50;;;;;;;;;;4345632;33;20027;-76
2022/05/29 13:43:20;;;;;;;4.70;1.52;;;;;;;;;;4347073;33;20113;-77
2022/05/29 13:46:25;;;;;;;3.83;1.30;;;;;;;;;;4348911;33;20058;-76
2022/05/29 13:49:00;;;;;;;5.15;1.40;;;;;;;;;;4350586;33;20028;-77
2022/05/29 13:54:42;;;;;;;5.25;1.35;;;;;;;;;;4319744;33;20066;-76
2022/05/29 13:57:18;;;;;;;3.03;1.10;;;;;;;;;;4318965;33;20454;-77
2022/05/29 14:08:59;;;;;;;5.95;1.30;;;;;;;;;;4304932;33;20043;-77
2022/05/29 14:11:42;;;;;;;3.45;1.25;;;;;;;;;;4304912;33;20036;-76
2022/05/29 14:14:28;;;;;;;5.65;1.40;;;;;;;;;;4331083;33;20059;-77
2022/05/29 14:16:53;;;;;;;2.33;1.00;;;;;;;;;;4329959;33;20091;-76
2022/05/29 14:19:51;;;;;;;2.72;0.93;;;;;;;;;;4335631;33;20024;-76
2022/05/29 14:23:09;;;;;;;2.95;1.08;;;;;;;;;;4336194;33;20028;-76
2022/05/29 14:25:48;;;;;;;4.53;1.83;;;;;;;;;;4330033;33;20048;-76
2022/05/29 14:28:43;;;;;;;4.35;1.30;;;;;;;;;;4304436;33;20029;-77
2022/05/29 14:31:46;;;;;;;5.80;1.58;;;;;;;;;;4305039;33;20102;-76
2022/05/29 14:34:11;;;;;;;5.37;1.42;;;;;;;;;;4304584;33;20032;-76
2022/05/29 14:36:56;;;;;;;3.80;1.30;;;;;;;;;;4322428;33;20335;-76
2022/05/29 14:39:33;;;;;;;3.65;1.10;;;;;;;;;;4322273;33;20320;-76
2022/05/29 14:42:07;;;;;;;3.58;1.40;;;;;;;;;;4335554;33;20508;-76
2022/05/29 14:45:03;;;;;;;4.40;1.40;;;;;;;;;;4335663;33;20046;-76
2022/05/29 14:47:35;;;;;;;9.23;2.05;;;;;;;;;;4335342;33;20054;-76
2022/05/29 14:50:02;;;;;;;3.58;1.48;;;;;;;;;;4329940;33;20063;-76
2022/05/29 14:55:50;;;;;;;5.03;1.60;;;;;;;;;;4321311;33;20035;-76
2022/05/29 14:58:34;;;;;;;4.30;1.50;;;;;;;;;;4319255;33;20036;-76
2022/05/29 15:01:23;;;;;;;6.35;1.70;;;;;;;;;;4323852;33;20094;-76
2022/05/29 15:04:32;;;;;;;3.60;1.52;;;;;;;;;;4333631;33;20024;-75
2022/05/29 15:12:29;;;;;;;4.62;1.55;;;;;;;;;;4333194;33;20050;-76
2022/05/29 15:15:14;;;;;;;7.57;1.90;;;;;;;;;;4332369;33;20058;-76
2022/05/29 15:17:39;;;;;;;4.30;1.90;;;;;;;;;;4333338;33;20137;-77
2022/05/29 15:26:22;;;;;;;11.07;2.35;;;;;;;;;;4329822;33;20441;-76
2022/05/29 15:28:51;;;;;;;9.10;1.92;;;;;;;;;;4318954;33;20020;-76
2022/05/29 15:31:39;;;;;;;6.62;1.75;;;;;;;;;;4332469;33;20031;-75
2022/05/29 15:34:39;;;;;;;6.20;1.80;;;;;;;;;;4319526;33;20074;-76
2022/05/29 15:37:12;;;;;;;5.40;1.50;;;;;;;;;;4315898;33;20056;-76
2022/05/29 15:39:46;;;;;;;6.43;1.58;;;;;;;;;;4332839;33;20070;-76
2022/05/29 15:42:17;;;;;;;4.62;1.50;;;;;;;;;;4332957;33;20027;-76
2022/05/29 15:44:55;;;;;;;5.80;2.22;;;;;;;;;;4332234;33;20031;-77
2022/05/29 15:47:29;;;;;;;2.95;1.40;;;;;;;;;;4332846;33;20058;-76
2022/05/29 15:50:00;;;;;;;5.30;1.20;;;;;;;;;;4332742;33;20113;-75
2022/05/29 15:52:38;;;;;;;5.37;1.20;;;;;;;;;;4331893;33;20078;-76
2022/05/29 15:55:19;;;;;;;5.95;1.85;;;;;;;;;;4333321;33;20031;-76
2022/05/29 15:57:55;;;;;;;6.87;1.87;;;;;;;;;;4332375;33;20106;-76
2022/05/29 16:00:26;;;;;;;4.25;1.50;;;;;;;;;;4332821;33;20054;-76
2022/05/29 16:03:25;;;;;;;8.98;2.08;;;;;;;;;;4332038;33;20090;-75
2022/05/29 16:06:05;;;;;;;3.05;1.20;;;;;;;;;;4332236;33;20047;-75
2022/05/29 16:08:43;;;;;;;3.67;1.30;;;;;;;;;;4337549;33;20016;-76
2022/05/29 16:11:30;;;;;;;4.45;1.58;;;;;;;;;;4347222;33;20147;-77
2022/05/29 16:13:56;;;;;;;8.77;1.20;;;;;;;;;;4346824;33;20047;-77
2022/05/29 16:16:22;;;;;;;6.93;1.30;;;;;;;;;;4346401;33;20411;-75
2022/05/29 16:18:50;;;;;;;4.62;1.30;;;;;;;;;;4347091;33;20121;-76
2022/05/29 16:21:22;;;;;;;8.45;1.40;;;;;;;;;;4346083;33;20027;-76
2022/05/29 16:23:58;;;;;;;4.82;1.52;;;;;;;;;;4333083;33;20051;-75
2022/05/29 16:29:53;;;;;;;6.22;1.35;;;;;;;;;;4346814;33;20136;-76
2022/05/29 16:32:27;;;;;;;5.40;1.48;;;;;;;;;;4346897;32;20046;-76
2022/05/29 16:35:22;;;;;;;3.15;1.20;;;;;;;;;;4347316;33;20024;-77
2022/05/29 16:49:47;;;;;;;8.55;1.40;;;;;;;;;;4346585;33;20102;-76
2022/05/29 16:52:21;;;;;;;3.12;1.20;;;;;;;;;;4346452;33;20035;-76
2022/05/29 16:54:46;;;;;;;4.93;1.20;;;;;;;;;;4345822;33;20023;-77
2022/05/29 16:57:31;;;;;;;2.37;1.20;;;;;;;;;;4346295;33;20065;-77
2022/05/29 17:00:22;;;;;;;4.32;1.52;;;;;;;;;;4347242;33;20016;-76
2022/05/29 17:03:11;;;;;;;6.72;1.30;;;;;;;;;;4314102;33;20029;-76
2022/05/29 17:18:46;;;;;;;12.40;2.00;;;;;;;;;;4257356;33;20417;-77
2022/05/29 17:24:45;;;;;;;2.65;1.10;;;;;;;;;;4242984;33;20109;-76
2022/05/29 17:30:47;;;;;;;4.90;1.40;;;;;;;;;;4228974;34;20078;-76
2022/05/29 17:33:16;;;;;;;5.70;1.65;;;;;;;;;;4274435;33;20416;-76
2022/05/29 17:35:53;;;;;;;3.97;1.40;;;;;;;;;;4286184;33;20449;-78
2022/05/29 17:38:48;;;;;;;6.60;1.80;;;;;;;;;;4285693;33;20060;-78
2022/05/29 17:41:27;;;;;;;;;;;;;;;;;;;;;
2022/05/29 17:44:02;;;;;;;4.28;1.23;;;;;;;;;;4315656;33;20040;-77
2022/05/29 17:46:30;;;;;;;5.50;1.60;;;;;;;;;;4344799;33;20027;-77
2022/05/29 17:55:40;;;;;;;2.58;1.25;;;;;;;;;;4346329;33;20092;-77
2022/05/29 17:58:38;;;;;;;3.28;1.33;;;;;;;;;;4345723;33;20081;-77
2022/05/29 18:01:12;;;;;;;5.07;1.77;;;;;;;;;;4314166;33;20067;-77
2022/05/29 18:06:52;;;;;;;5.68;2.05;;;;;;;;;;4345235;33;20549;-77
2022/05/29 18:12:44;;;;;;;5.15;1.62;;;;;;;;;;4314280;33;20059;-76
2022/05/29 18:15:28;;;;;;;;;;;;;;;;;;;;;
2022/05/29 18:21:33;;;;;;;7.15;1.60;;;;;;;;;;4299096;33;20099;-75
2022/05/29 18:23:59;;;;;;;5.80;1.73;;;;;;;;;;4299762;33;20259;-77
2022/05/29 18:32:53;;;;;;;8.48;1.65;;;;;;;;;;4216058;33;20093;-77
2022/05/29 18:35:21;;;;;;;3.05;1.27;;;;;;;;;;4244384;33;20136;-76
2022/05/29 18:37:49;;;;;;;3.65;1.20;;;;;;;;;;4244502;33;20053;-76
2022/05/29 18:40:18;;;;;;;4.28;1.70;;;;;;;;;;4244623;33;20030;-76
2022/05/29 18:42:44;;;;;;;10.15;3.12;;;;;;;;;;4278603;33;20028;-76
2022/05/29 18:45:36;;;;;;;8.10;1.48;;;;;;;;;;4340294;33;20440;-76
2022/05/29 18:48:04;;;;;;;3.47;1.37;;;;;;;;;;4346447;33;20074;-76
2022/05/29 18:50:49;;;;;;;4.05;1.45;;;;;;;;;;4347811;33;20039;-76
2022/05/29 18:53:33;;;;;;;2.40;1.65;;;;;;;;;;4348040;33;20085;-77
2022/05/29 18:56:01;;;;;;;9.25;1.95;;;;;;;;;;4334321;33;20066;-77
2022/05/29 18:58:29;;;;;;;7.68;2.10;;;;;;;;;;4347974;33;20053;-77
2022/05/29 19:00:59;;;;;;;3.90;1.60;;;;;;;;;;4347815;33;20124;-77
2022/05/29 19:03:25;;;;;;;7.03;2.12;;;;;;;;;;4346494;33;20123;-76
2022/05/29 19:05:51;;;;;;;10.18;1.87;;;;;;;;;;4346091;33;20335;-76
2022/05/29 19:08:18;;;;;;;10.27;1.95;;;;;;;;;;4347209;33;20058;-75
2022/05/29 19:11:00;;;;;;;5.57;1.77;;;;;;;;;;4346906;33;20039;-76
2022/05/29 19:13:26;;;;;;;6.37;2.42;;;;;;;;;;4347479;33;20031;-76
2022/05/29 19:16:00;;;;;;;10.13;2.37;;;;;;;;;;4347351;33;20062;-75
2022/05/29 19:18:31;;;;;;;8.10;2.22;;;;;;;;;;4334711;33;20047;-75
2022/05/29 19:20:56;;;;;;;7.82;2.60;;;;;;;;;;4346948;33;20040;-75
2022/05/29 19:23:27;;;;;;;15.57;3.85;;;;;;;;;;4347369;33;20053;-76
2022/05/29 19:25:59;;;;;;;9.52;2.65;;;;;;;;;;4347760;33;20031;-76
2022/05/29 19:28:32;;;;;;;11.15;2.92;;;;;;;;;;4347384;33;20082;-75
2022/05/29 19:30:58;;;;;;;11.93;2.35;;;;;;;;;;4347222;33;20070;-77
2022/05/29 19:33:52;;;;;;;8.82;3.35;;;;;;;;;;4347404;33;20027;-76
2022/05/29 19:36:19;;;;;;;8.18;2.67;;;;;;;;;;4343328;33;20031;-76
2022/05/29 19:38:44;;;;;;;9.18;2.47;;;;;;;;;;4347349;33;20403;-76
2022/05/29 19:41:10;;;;;;;;;;;;;;;;;;4347287;33;20051;-76
2022/05/29 19:43:38;;;;;;;11.30;2.25;;;;;;;;;;4347314;33;20313;-77
2022/05/29 19:46:03;;;;;;;10.23;2.72;;;;;;;;;;4347611;33;20035;-76
2022/05/29 19:48:28;;;;;;;;;;;;;;;;;;4347316;33;20043;-76
2022/05/29 19:50:54;;;;;;;12.73;3.05;;;;;;;;;;4346369;33;19939;-77